sensor_id;sensor_type;location;lat;lon;timestamp;temperature;humidity
46490;DHT22;32204;49.160;8.580;2023-05-20T00:01:00;15.70;8.10
46490;DHT22;32204;49.160;8.580;2023-05-20T00:03:26;15.60;1.00
46490;DHT22;32204;49.160;8.580;2023-05-20T00:05:51;15.50;99.90
46490;DHT22;32204;49.160;8.580;2023-05-20T00:08:18;15.50;99.90
46490;DHT22;32204;49.160;8.580;2023-05-20T00:10:43;15.50;99.90
46490;DHT22;32204;49.160;8.580;2023-05-20T00:13:09;15.50;99.90
46490;DHT22;32204;49.160;8.580;2023-05-20T00:15:35;15.50;99.90
46490;DHT22;32204;49.160;8.580;2023-05-20T00:18:01;15.50;99.90
46490;DHT22;32204;49.160;8.580;2023-05-20T00:20:27;15.60;99.90
46490;DHT22;32204;49.160;8.580;2023-05-20T00:22:53;15.60;99.90
46490;DHT22;32204;49.160;8.580;2023-05-20T00:25:18;15.50;99.90
46490;DHT22;32204;49.160;8.580;2023-05-20T00:27:44;15.50;99.90
46490;DHT22;32204;49.160;8.580;2023-05-20T00:30:10;15.40;99.90
46490;DHT22;32204;49.160;8.580;2023-05-20T00:32:36;15.50;99.90
46490;DHT22;32204;49.160;8.580;2023-05-20T00:35:02;15.50;99.90
46490;DHT22;32204;49.160;8.580;2023-05-20T00:37:28;15.40;99.90
46490;DHT22;32204;49.160;8.580;2023-05-20T00:39:53;15.40;99.90
46490;DHT22;32204;49.160;8.580;2023-05-20T00:44:46;15.30;99.90
46490;DHT22;32204;49.160;8.580;2023-05-20T00:47:12;15.40;99.90
46490;DHT22;32204;49.160;8.580;2023-05-20T00:49:38;15.30;37.20
46490;DHT22;32204;49.160;8.580;2023-05-20T00:52:04;15.20;99.90
46490;DHT22;32204;49.160;8.580;2023-05-20T00:54:30;15.10;99.90
46490;DHT22;32204;49.160;8.580;2023-05-20T00:56:56;15.10;99.90
46490;DHT22;32204;49.160;8.580;2023-05-20T00:59:22;15.10;99.90
46490;DHT22;32204;49.160;8.580;2023-05-20T01:01:48;15.10;99.90
46490;DHT22;32204;49.160;8.580;2023-05-20T01:04:14;15.10;99.90
46490;DHT22;32204;49.160;8.580;2023-05-20T01:06:40;15.00;99.90
46490;DHT22;32204;49.160;8.580;2023-05-20T01:09:05;14.90;99.90
46490;DHT22;32204;49.160;8.580;2023-05-20T01:11:41;14.90;99.90
46490;DHT22;32204;49.160;8.580;2023-05-20T01:14:07;14.90;99.90
46490;DHT22;32204;49.160;8.580;2023-05-20T01:16:38;14.90;1.00
46490;DHT22;32204;49.160;8.580;2023-05-20T01:19:09;14.90;99.90
46490;DHT22;32204;49.160;8.580;2023-05-20T01:21:40;15.00;99.90
46490;DHT22;32204;49.160;8.580;2023-05-20T01:24:06;14.90;99.90
46490;DHT22;32204;49.160;8.580;2023-05-20T01:26:32;14.90;99.90
46490;DHT22;32204;49.160;8.580;2023-05-20T01:29:02;14.90;1.00
46490;DHT22;32204;49.160;8.580;2023-05-20T01:31:32;14.90;1.00
46490;DHT22;32204;49.160;8.580;2023-05-20T01:34:03;15.00;99.90
46490;DHT22;32204;49.160;8.580;2023-05-20T01:36:30;15.00;99.90
46490;DHT22;32204;49.160;8.580;2023-05-20T01:38:57;14.90;99.90
46490;DHT22;32204;49.160;8.580;2023-05-20T01:41:24;14.90;99.90
46490;DHT22;32204;49.160;8.580;2023-05-20T01:43:51;14.80;99.90
46490;DHT22;32204;49.160;8.580;2023-05-20T01:46:17;14.80;99.90
46490;DHT22;32204;49.160;8.580;2023-05-20T01:48:42;14.80;1.00
46490;DHT22;32204;49.160;8.580;2023-05-20T01:51:08;14.80;1.00
46490;DHT22;32204;49.160;8.580;2023-05-20T01:53:33;14.80;1.00
46490;DHT22;32204;49.160;8.580;2023-05-20T01:55:59;14.90;1.00
46490;DHT22;32204;49.160;8.580;2023-05-20T01:58:24;15.00;1.00
46490;DHT22;32204;49.160;8.580;2023-05-20T02:00:50;15.10;99.90
46490;DHT22;32204;49.160;8.580;2023-05-20T02:03:15;15.20;99.90
46490;DHT22;32204;49.160;8.580;2023-05-20T02:05:41;15.30;99.90
46490;DHT22;32204;49.160;8.580;2023-05-20T02:08:07;15.40;99.90
46490;DHT22;32204;49.160;8.580;2023-05-20T02:10:32;15.40;99.90
46490;DHT22;32204;49.160;8.580;2023-05-20T02:12:58;15.50;99.90
46490;DHT22;32204;49.160;8.580;2023-05-20T02:15:23;15.50;99.90
46490;DHT22;32204;49.160;8.580;2023-05-20T02:17:49;15.30;1.00
46490;DHT22;32204;49.160;8.580;2023-05-20T02:20:14;15.10;1.00
46490;DHT22;32204;49.160;8.580;2023-05-20T02:22:40;15.00;99.90
46490;DHT22;32204;49.160;8.580;2023-05-20T02:25:06;14.90;99.90
46490;DHT22;32204;49.160;8.580;2023-05-20T02:27:32;14.90;99.90
46490;DHT22;32204;49.160;8.580;2023-05-20T02:29:59;15.00;99.90
46490;DHT22;32204;49.160;8.580;2023-05-20T02:32:25;15.00;99.90
46490;DHT22;32204;49.160;8.580;2023-05-20T02:34:53;15.10;99.90
46490;DHT22;32204;49.160;8.580;2023-05-20T02:37:19;15.20;99.90
46490;DHT22;32204;49.160;8.580;2023-05-20T02:39:45;15.10;99.90
46490;DHT22;32204;49.160;8.580;2023-05-20T02:42:11;15.10;47.20
46490;DHT22;32204;49.160;8.580;2023-05-20T02:44:36;15.00;1.00
46490;DHT22;32204;49.160;8.580;2023-05-20T02:47:02;15.00;91.00
46490;DHT22;32204;49.160;8.580;2023-05-20T02:49:27;14.90;8.50
46490;DHT22;32204;49.160;8.580;2023-05-20T02:51:53;14.80;99.90
46490;DHT22;32204;49.160;8.580;2023-05-20T02:54:19;14.80;1.00
46490;DHT22;32204;49.160;8.580;2023-05-20T02:56:44;14.80;99.90
46490;DHT22;32204;49.160;8.580;2023-05-20T02:59:10;14.70;19.10
46490;DHT22;32204;49.160;8.580;2023-05-20T03:01:36;14.80;1.00
46490;DHT22;32204;49.160;8.580;2023-05-20T03:04:02;14.80;1.00
46490;DHT22;32204;49.160;8.580;2023-05-20T03:06:28;14.80;1.00
46490;DHT22;32204;49.160;8.580;2023-05-20T03:08:56;14.90;99.90
46490;DHT22;32204;49.160;8.580;2023-05-20T03:11:22;14.90;99.90
46490;DHT22;32204;49.160;8.580;2023-05-20T03:13:47;14.90;99.90
46490;DHT22;32204;49.160;8.580;2023-05-20T03:16:13;14.90;99.90
46490;DHT22;32204;49.160;8.580;2023-05-20T03:18:39;14.80;99.90
46490;DHT22;32204;49.160;8.580;2023-05-20T03:21:05;14.80;99.90
46490;DHT22;32204;49.160;8.580;2023-05-20T03:23:30;14.90;99.90
46490;DHT22;32204;49.160;8.580;2023-05-20T03:25:56;14.80;99.90
46490;DHT22;32204;49.160;8.580;2023-05-20T03:28:21;14.70;99.90
46490;DHT22;32204;49.160;8.580;2023-05-20T03:30:47;14.70;99.90
46490;DHT22;32204;49.160;8.580;2023-05-20T03:33:13;14.70;99.90
46490;DHT22;32204;49.160;8.580;2023-05-20T03:35:40;14.70;1.00
46490;DHT22;32204;49.160;8.580;2023-05-20T03:38:05;14.70;1.00
46490;DHT22;32204;49.160;8.580;2023-05-20T03:40:31;14.60;1.00
46490;DHT22;32204;49.160;8.580;2023-05-20T03:42:56;14.60;1.00
46490;DHT22;32204;49.160;8.580;2023-05-20T03:45:22;14.50;1.00
46490;DHT22;32204;49.160;8.580;2023-05-20T03:47:47;14.40;10.50
46490;DHT22;32204;49.160;8.580;2023-05-20T03:50:13;14.20;99.90
46490;DHT22;32204;49.160;8.580;2023-05-20T03:52:39;14.00;1.00
46490;DHT22;32204;49.160;8.580;2023-05-20T03:55:05;14.00;1.00
46490;DHT22;32204;49.160;8.580;2023-05-20T03:57:31;14.10;1.00
46490;DHT22;32204;49.160;8.580;2023-05-20T03:59:57;14.10;99.90
46490;DHT22;32204;49.160;8.580;2023-05-20T04:02:22;14.20;99.90
46490;DHT22;32204;49.160;8.580;2023-05-20T04:04:48;14.20;66.90
46490;DHT22;32204;49.160;8.580;2023-05-20T04:07:17;14.30;1.00
46490;DHT22;32204;49.160;8.580;2023-05-20T04:09:43;14.40;1.00
46490;DHT22;32204;49.160;8.580;2023-05-20T04:12:08;14.40;99.90
46490;DHT22;32204;49.160;8.580;2023-05-20T04:14:35;14.40;99.90
46490;DHT22;32204;49.160;8.580;2023-05-20T04:17:04;14.40;99.90
46490;DHT22;32204;49.160;8.580;2023-05-20T04:19:30;14.30;99.90
46490;DHT22;32204;49.160;8.580;2023-05-20T04:21:56;14.30;99.90
46490;DHT22;32204;49.160;8.580;2023-05-20T04:24:21;14.30;99.90
46490;DHT22;32204;49.160;8.580;2023-05-20T04:26:52;14.20;99.90
46490;DHT22;32204;49.160;8.580;2023-05-20T04:29:18;14.30;1.00
46490;DHT22;32204;49.160;8.580;2023-05-20T04:31:47;14.30;99.90
46490;DHT22;32204;49.160;8.580;2023-05-20T04:34:13;14.30;99.90
46490;DHT22;32204;49.160;8.580;2023-05-20T04:36:39;14.30;1.00
46490;DHT22;32204;49.160;8.580;2023-05-20T04:39:04;14.20;1.00
46490;DHT22;32204;49.160;8.580;2023-05-20T04:41:32;14.20;1.00
46490;DHT22;32204;49.160;8.580;2023-05-20T04:43:57;14.20;1.00
46490;DHT22;32204;49.160;8.580;2023-05-20T04:46:25;14.20;1.00
46490;DHT22;32204;49.160;8.580;2023-05-20T04:48:51;14.20;1.00
46490;DHT22;32204;49.160;8.580;2023-05-20T04:51:17;14.30;1.00
46490;DHT22;32204;49.160;8.580;2023-05-20T04:53:42;14.30;1.00
46490;DHT22;32204;49.160;8.580;2023-05-20T04:56:09;14.40;99.90
46490;DHT22;32204;49.160;8.580;2023-05-20T04:58:35;14.40;99.90
46490;DHT22;32204;49.160;8.580;2023-05-20T05:01:01;14.40;99.90
46490;DHT22;32204;49.160;8.580;2023-05-20T05:03:27;14.40;99.90
46490;DHT22;32204;49.160;8.580;2023-05-20T05:05:56;14.50;99.90
46490;DHT22;32204;49.160;8.580;2023-05-20T05:08:22;14.50;99.90
46490;DHT22;32204;49.160;8.580;2023-05-20T05:10:48;14.50;99.90
46490;DHT22;32204;49.160;8.580;2023-05-20T05:13:14;14.70;99.90
46490;DHT22;32204;49.160;8.580;2023-05-20T05:15:40;14.60;99.90
46490;DHT22;32204;49.160;8.580;2023-05-20T05:18:05;14.60;99.90
46490;DHT22;32204;49.160;8.580;2023-05-20T05:20:31;14.70;99.90
46490;DHT22;32204;49.160;8.580;2023-05-20T05:22:56;14.80;99.90
46490;DHT22;32204;49.160;8.580;2023-05-20T05:25:22;14.80;99.90
46490;DHT22;32204;49.160;8.580;2023-05-20T05:27:48;14.70;86.60
46490;DHT22;32204;49.160;8.580;2023-05-20T05:30:14;14.80;99.90
46490;DHT22;32204;49.160;8.580;2023-05-20T05:32:40;14.90;99.90
46490;DHT22;32204;49.160;8.580;2023-05-20T05:35:06;15.10;99.90
46490;DHT22;32204;49.160;8.580;2023-05-20T05:37:32;15.40;1.00
46490;DHT22;32204;49.160;8.580;2023-05-20T05:39:57;15.70;1.00
46490;DHT22;32204;49.160;8.580;2023-05-20T05:42:23;16.20;84.80
46490;DHT22;32204;49.160;8.580;2023-05-20T05:44:49;17.70;99.90
46490;DHT22;32204;49.160;8.580;2023-05-20T05:47:14;18.90;38.50
46490;DHT22;32204;49.160;8.580;2023-05-20T05:49:40;20.00;1.00
46490;DHT22;32204;49.160;8.580;2023-05-20T05:52:06;21.10;1.00
46490;DHT22;32204;49.160;8.580;2023-05-20T05:54:31;21.90;99.90
46490;DHT22;32204;49.160;8.580;2023-05-20T05:56:57;22.00;99.90
46490;DHT22;32204;49.160;8.580;2023-05-20T05:59:23;21.50;99.90
46490;DHT22;32204;49.160;8.580;2023-05-20T06:01:48;20.80;99.90
46490;DHT22;32204;49.160;8.580;2023-05-20T06:04:14;21.00;99.90
46490;DHT22;32204;49.160;8.580;2023-05-20T06:06:40;21.80;99.90
46490;DHT22;32204;49.160;8.580;2023-05-20T06:09:06;21.90;99.90
46490;DHT22;32204;49.160;8.580;2023-05-20T06:11:31;21.50;99.90
46490;DHT22;32204;49.160;8.580;2023-05-20T06:13:57;20.80;99.90
46490;DHT22;32204;49.160;8.580;2023-05-20T06:16:23;19.90;1.00
46490;DHT22;32204;49.160;8.580;2023-05-20T06:18:48;19.60;1.00
46490;DHT22;32204;49.160;8.580;2023-05-20T06:21:17;19.80;1.00
46490;DHT22;32204;49.160;8.580;2023-05-20T06:23:43;19.60;1.00
46490;DHT22;32204;49.160;8.580;2023-05-20T06:26:08;19.70;1.00
46490;DHT22;32204;49.160;8.580;2023-05-20T06:28:34;19.50;1.00
46490;DHT22;32204;49.160;8.580;2023-05-20T06:31:00;19.00;1.00
46490;DHT22;32204;49.160;8.580;2023-05-20T06:33:26;18.60;1.00
46490;DHT22;32204;49.160;8.580;2023-05-20T06:35:54;18.20;55.60
46490;DHT22;32204;49.160;8.580;2023-05-20T06:38:19;18.00;99.90
46490;DHT22;32204;49.160;8.580;2023-05-20T06:40:46;18.00;99.90
46490;DHT22;32204;49.160;8.580;2023-05-20T06:43:13;18.00;99.90
46490;DHT22;32204;49.160;8.580;2023-05-20T06:45:38;18.20;99.90
46490;DHT22;32204;49.160;8.580;2023-05-20T06:48:04;18.20;99.90
46490;DHT22;32204;49.160;8.580;2023-05-20T06:50:30;18.60;99.90
46490;DHT22;32204;49.160;8.580;2023-05-20T06:52:55;19.40;99.90
46490;DHT22;32204;49.160;8.580;2023-05-20T06:55:21;20.30;14.40
46490;DHT22;32204;49.160;8.580;2023-05-20T06:57:47;20.30;1.00
46490;DHT22;32204;49.160;8.580;2023-05-20T07:00:12;20.10;1.00
46490;DHT22;32204;49.160;8.580;2023-05-20T07:02:38;19.40;16.70
46490;DHT22;32204;49.160;8.580;2023-05-20T07:05:05;19.20;99.90
46490;DHT22;32204;49.160;8.580;2023-05-20T07:07:31;19.10;99.90
46490;DHT22;32204;49.160;8.580;2023-05-20T07:09:57;18.70;99.90
46490;DHT22;32204;49.160;8.580;2023-05-20T07:12:23;18.70;99.90
46490;DHT22;32204;49.160;8.580;2023-05-20T07:14:48;18.60;99.90
46490;DHT22;32204;49.160;8.580;2023-05-20T07:17:14;18.50;99.90
46490;DHT22;32204;49.160;8.580;2023-05-20T07:19:40;18.60;1.00
46490;DHT22;32204;49.160;8.580;2023-05-20T07:22:05;18.60;99.90
46490;DHT22;32204;49.160;8.580;2023-05-20T07:24:31;18.50;99.90
46490;DHT22;32204;49.160;8.580;2023-05-20T07:26:57;18.40;99.90
46490;DHT22;32204;49.160;8.580;2023-05-20T07:29:23;18.30;99.90
46490;DHT22;32204;49.160;8.580;2023-05-20T07:31:48;18.40;99.90
46490;DHT22;32204;49.160;8.580;2023-05-20T07:34:14;18.40;99.90
46490;DHT22;32204;49.160;8.580;2023-05-20T07:36:39;18.40;99.90
46490;DHT22;32204;49.160;8.580;2023-05-20T07:39:05;18.40;99.90
46490;DHT22;32204;49.160;8.580;2023-05-20T07:41:30;18.40;99.90
46490;DHT22;32204;49.160;8.580;2023-05-20T07:43:56;18.50;99.90
46490;DHT22;32204;49.160;8.580;2023-05-20T07:46:22;18.50;99.90
46490;DHT22;32204;49.160;8.580;2023-05-20T07:48:47;18.80;99.90
46490;DHT22;32204;49.160;8.580;2023-05-20T07:51:13;19.00;99.90
46490;DHT22;32204;49.160;8.580;2023-05-20T07:53:38;19.00;99.90
46490;DHT22;32204;49.160;8.580;2023-05-20T07:56:04;18.90;99.90
46490;DHT22;32204;49.160;8.580;2023-05-20T07:58:32;18.80;99.90
46490;DHT22;32204;49.160;8.580;2023-05-20T08:00:57;18.90;99.90
46490;DHT22;32204;49.160;8.580;2023-05-20T08:03:23;19.10;99.90
46490;DHT22;32204;49.160;8.580;2023-05-20T08:05:48;19.20;99.90
46490;DHT22;32204;49.160;8.580;2023-05-20T08:08:14;19.30;99.90
46490;DHT22;32204;49.160;8.580;2023-05-20T08:10:40;19.10;99.90
46490;DHT22;32204;49.160;8.580;2023-05-20T08:13:06;19.30;99.90
46490;DHT22;32204;49.160;8.580;2023-05-20T08:15:31;19.10;99.90
46490;DHT22;32204;49.160;8.580;2023-05-20T08:17:57;19.00;99.90
46490;DHT22;32204;49.160;8.580;2023-05-20T08:20:23;19.10;99.90
46490;DHT22;32204;49.160;8.580;2023-05-20T08:22:50;19.30;99.90
46490;DHT22;32204;49.160;8.580;2023-05-20T08:25:16;19.60;99.90
46490;DHT22;32204;49.160;8.580;2023-05-20T08:27:42;19.80;99.60
46490;DHT22;32204;49.160;8.580;2023-05-20T08:30:08;19.60;99.90
46490;DHT22;32204;49.160;8.580;2023-05-20T08:32:35;19.50;99.90
46490;DHT22;32204;49.160;8.580;2023-05-20T08:35:01;19.60;99.90
46490;DHT22;32204;49.160;8.580;2023-05-20T08:37:27;19.80;99.90
46490;DHT22;32204;49.160;8.580;2023-05-20T08:39:53;19.90;99.90
46490;DHT22;32204;49.160;8.580;2023-05-20T08:42:24;20.00;53.10
46490;DHT22;32204;49.160;8.580;2023-05-20T08:44:51;20.00;38.20
46490;DHT22;32204;49.160;8.580;2023-05-20T08:47:21;20.10;10.90
46490;DHT22;32204;49.160;8.580;2023-05-20T08:49:48;20.40;14.90
46490;DHT22;32204;49.160;8.580;2023-05-20T08:52:16;20.50;9.10
46490;DHT22;32204;49.160;8.580;2023-05-20T08:54:44;20.50;1.00
46490;DHT22;32204;49.160;8.580;2023-05-20T08:57:10;20.30;1.00
46490;DHT22;32204;49.160;8.580;2023-05-20T08:59:40;20.20;1.00
46490;DHT22;32204;49.160;8.580;2023-05-20T09:02:06;20.20;1.00
46490;DHT22;32204;49.160;8.580;2023-05-20T09:04:32;20.20;1.00
46490;DHT22;32204;49.160;8.580;2023-05-20T09:06:58;20.20;1.00
46490;DHT22;32204;49.160;8.580;2023-05-20T09:09:24;20.30;1.00
46490;DHT22;32204;49.160;8.580;2023-05-20T09:11:49;20.40;1.00
46490;DHT22;32204;49.160;8.580;2023-05-20T09:14:15;20.60;1.00
46490;DHT22;32204;49.160;8.580;2023-05-20T09:16:41;20.60;1.00
46490;DHT22;32204;49.160;8.580;2023-05-20T09:19:06;20.80;1.00
46490;DHT22;32204;49.160;8.580;2023-05-20T09:21:34;20.90;1.00
46490;DHT22;32204;49.160;8.580;2023-05-20T09:24:03;20.80;1.00
46490;DHT22;32204;49.160;8.580;2023-05-20T09:26:29;20.40;1.00
46490;DHT22;32204;49.160;8.580;2023-05-20T09:28:58;20.60;1.00
46490;DHT22;32204;49.160;8.580;2023-05-20T09:31:27;20.90;1.00
46490;DHT22;32204;49.160;8.580;2023-05-20T09:33:54;21.10;1.00
46490;DHT22;32204;49.160;8.580;2023-05-20T09:36:22;21.20;1.00
46490;DHT22;32204;49.160;8.580;2023-05-20T09:38:51;21.10;1.00
46490;DHT22;32204;49.160;8.580;2023-05-20T09:41:19;21.10;1.00
46490;DHT22;32204;49.160;8.580;2023-05-20T09:43:49;21.10;1.00
46490;DHT22;32204;49.160;8.580;2023-05-20T09:46:16;21.30;1.00
46490;DHT22;32204;49.160;8.580;2023-05-20T09:48:42;21.40;1.00
46490;DHT22;32204;49.160;8.580;2023-05-20T09:51:09;21.40;1.00
46490;DHT22;32204;49.160;8.580;2023-05-20T09:53:36;21.20;1.00
46490;DHT22;32204;49.160;8.580;2023-05-20T09:56:02;20.90;1.00
46490;DHT22;32204;49.160;8.580;2023-05-20T09:58:28;20.80;1.00
46490;DHT22;32204;49.160;8.580;2023-05-20T10:00:54;20.60;1.00
46490;DHT22;32204;49.160;8.580;2023-05-20T10:03:23;20.60;1.00
46490;DHT22;32204;49.160;8.580;2023-05-20T10:06:06;20.70;1.00
46490;DHT22;32204;49.160;8.580;2023-05-20T10:08:47;21.20;1.00
46490;DHT22;32204;49.160;8.580;2023-05-20T10:11:32;21.60;1.00
46490;DHT22;32204;49.160;8.580;2023-05-20T10:16:31;21.40;99.90
46490;DHT22;32204;49.160;8.580;2023-05-20T10:19:22;21.00;1.00
46490;DHT22;32204;49.160;8.580;2023-05-20T10:22:06;21.10;1.00
46490;DHT22;32204;49.160;8.580;2023-05-20T10:24:41;21.20;1.00
46490;DHT22;32204;49.160;8.580;2023-05-20T10:27:09;21.20;1.00
46490;DHT22;32204;49.160;8.580;2023-05-20T10:32:21;21.00;1.00
46490;DHT22;32204;49.160;8.580;2023-05-20T10:34:49;21.10;1.00
46490;DHT22;32204;49.160;8.580;2023-05-20T10:37:29;21.30;1.00
46490;DHT22;32204;49.160;8.580;2023-05-20T10:40:17;21.30;99.90
46490;DHT22;32204;49.160;8.580;2023-05-20T10:42:43;21.40;99.90
46490;DHT22;32204;49.160;8.580;2023-05-20T10:45:09;21.60;1.00
46490;DHT22;32204;49.160;8.580;2023-05-20T10:47:35;21.80;99.90
46490;DHT22;32204;49.160;8.580;2023-05-20T10:50:01;22.00;99.90
46490;DHT22;32204;49.160;8.580;2023-05-20T10:52:33;21.90;99.90
46490;DHT22;32204;49.160;8.580;2023-05-20T10:55:00;22.00;99.90
46490;DHT22;32204;49.160;8.580;2023-05-20T10:57:26;22.10;99.90
46490;DHT22;32204;49.160;8.580;2023-05-20T10:59:53;22.50;99.90
46490;DHT22;32204;49.160;8.580;2023-05-20T11:02:20;22.10;99.90
46490;DHT22;32204;49.160;8.580;2023-05-20T11:04:51;22.00;99.90
46490;DHT22;32204;49.160;8.580;2023-05-20T11:07:27;21.90;99.90
46490;DHT22;32204;49.160;8.580;2023-05-20T11:09:56;21.90;99.90
46490;DHT22;32204;49.160;8.580;2023-05-20T11:12:26;21.90;99.90
46490;DHT22;32204;49.160;8.580;2023-05-20T11:14:52;22.30;99.90
46490;DHT22;32204;49.160;8.580;2023-05-20T11:17:18;22.10;99.90
46490;DHT22;32204;49.160;8.580;2023-05-20T11:19:45;21.80;99.90
46490;DHT22;32204;49.160;8.580;2023-05-20T11:22:11;22.00;99.90
46490;DHT22;32204;49.160;8.580;2023-05-20T11:24:36;22.40;99.90
46490;DHT22;32204;49.160;8.580;2023-05-20T11:27:02;22.40;99.90
46490;DHT22;32204;49.160;8.580;2023-05-20T11:29:29;22.40;99.90
46490;DHT22;32204;49.160;8.580;2023-05-20T11:31:56;22.20;99.90
46490;DHT22;32204;49.160;8.580;2023-05-20T11:34:22;22.20;99.90
46490;DHT22;32204;49.160;8.580;2023-05-20T11:36:57;22.40;99.90
46490;DHT22;32204;49.160;8.580;2023-05-20T11:39:24;22.30;99.90
46490;DHT22;32204;49.160;8.580;2023-05-20T11:41:51;22.00;99.90
46490;DHT22;32204;49.160;8.580;2023-05-20T11:44:19;22.10;99.90
46490;DHT22;32204;49.160;8.580;2023-05-20T11:46:47;22.50;99.90
46490;DHT22;32204;49.160;8.580;2023-05-20T11:49:14;22.50;99.90
46490;DHT22;32204;49.160;8.580;2023-05-20T11:51:40;22.30;99.90
46490;DHT22;32204;49.160;8.580;2023-05-20T11:54:06;22.10;99.90
46490;DHT22;32204;49.160;8.580;2023-05-20T11:56:33;22.20;99.90
46490;DHT22;32204;49.160;8.580;2023-05-20T11:59:00;22.20;99.90
46490;DHT22;32204;49.160;8.580;2023-05-20T12:01:29;22.20;99.90
46490;DHT22;32204;49.160;8.580;2023-05-20T12:03:55;22.20;99.90
46490;DHT22;32204;49.160;8.580;2023-05-20T12:06:21;22.10;99.90
46490;DHT22;32204;49.160;8.580;2023-05-20T12:08:46;22.20;99.90
46490;DHT22;32204;49.160;8.580;2023-05-20T12:11:12;22.40;99.90
46490;DHT22;32204;49.160;8.580;2023-05-20T12:13:38;22.60;99.90
46490;DHT22;32204;49.160;8.580;2023-05-20T12:16:04;22.70;99.90
46490;DHT22;32204;49.160;8.580;2023-05-20T12:18:33;22.70;99.90
46490;DHT22;32204;49.160;8.580;2023-05-20T12:20:59;22.60;99.90
46490;DHT22;32204;49.160;8.580;2023-05-20T12:23:25;22.60;99.90
46490;DHT22;32204;49.160;8.580;2023-05-20T12:25:51;22.40;99.90
46490;DHT22;32204;49.160;8.580;2023-05-20T12:28:16;22.30;99.90
46490;DHT22;32204;49.160;8.580;2023-05-20T12:30:42;22.40;99.90
46490;DHT22;32204;49.160;8.580;2023-05-20T12:33:08;22.40;99.90
46490;DHT22;32204;49.160;8.580;2023-05-20T12:35:38;22.40;99.90
46490;DHT22;32204;49.160;8.580;2023-05-20T12:38:05;22.60;99.90
46490;DHT22;32204;49.160;8.580;2023-05-20T12:40:31;22.80;99.90
46490;DHT22;32204;49.160;8.580;2023-05-20T12:43:00;22.80;99.90
46490;DHT22;32204;49.160;8.580;2023-05-20T12:45:26;22.70;99.90
46490;DHT22;32204;49.160;8.580;2023-05-20T12:47:52;22.70;99.90
46490;DHT22;32204;49.160;8.580;2023-05-20T12:50:18;22.80;99.90
46490;DHT22;32204;49.160;8.580;2023-05-20T12:52:43;22.80;99.90
46490;DHT22;32204;49.160;8.580;2023-05-20T12:55:09;22.70;99.90
46490;DHT22;32204;49.160;8.580;2023-05-20T12:57:43;22.90;99.90
46490;DHT22;32204;49.160;8.580;2023-05-20T13:00:09;23.30;99.90
46490;DHT22;32204;49.160;8.580;2023-05-20T13:02:39;23.40;99.90
46490;DHT22;32204;49.160;8.580;2023-05-20T13:05:05;23.50;99.90
46490;DHT22;32204;49.160;8.580;2023-05-20T13:07:31;23.60;99.90
46490;DHT22;32204;49.160;8.580;2023-05-20T13:09:58;23.60;99.90
46490;DHT22;32204;49.160;8.580;2023-05-20T13:12:24;23.50;99.90
46490;DHT22;32204;49.160;8.580;2023-05-20T13:14:49;23.60;99.90
46490;DHT22;32204;49.160;8.580;2023-05-20T13:17:15;23.60;99.90
46490;DHT22;32204;49.160;8.580;2023-05-20T13:19:40;23.50;99.90
46490;DHT22;32204;49.160;8.580;2023-05-20T13:22:06;23.40;99.90
46490;DHT22;32204;49.160;8.580;2023-05-20T13:24:33;23.30;99.90
46490;DHT22;32204;49.160;8.580;2023-05-20T13:26:59;23.20;99.90
46490;DHT22;32204;49.160;8.580;2023-05-20T13:29:26;23.10;99.90
46490;DHT22;32204;49.160;8.580;2023-05-20T13:31:51;23.10;99.90
46490;DHT22;32204;49.160;8.580;2023-05-20T13:34:17;23.10;99.90
46490;DHT22;32204;49.160;8.580;2023-05-20T13:36:43;23.30;99.90
46490;DHT22;32204;49.160;8.580;2023-05-20T13:39:09;23.40;99.90
46490;DHT22;32204;49.160;8.580;2023-05-20T13:41:35;23.60;99.90
46490;DHT22;32204;49.160;8.580;2023-05-20T13:44:01;23.40;99.90
46490;DHT22;32204;49.160;8.580;2023-05-20T13:46:27;23.20;99.90
46490;DHT22;32204;49.160;8.580;2023-05-20T13:48:52;23.30;99.90
46490;DHT22;32204;49.160;8.580;2023-05-20T13:51:18;23.30;99.90
46490;DHT22;32204;49.160;8.580;2023-05-20T13:53:43;23.30;99.90
46490;DHT22;32204;49.160;8.580;2023-05-20T13:56:09;23.30;99.90
46490;DHT22;32204;49.160;8.580;2023-05-20T13:58:35;23.20;99.90
46490;DHT22;32204;49.160;8.580;2023-05-20T14:01:01;23.20;99.90
46490;DHT22;32204;49.160;8.580;2023-05-20T14:03:29;23.30;99.90
46490;DHT22;32204;49.160;8.580;2023-05-20T14:05:55;23.60;99.90
46490;DHT22;32204;49.160;8.580;2023-05-20T14:08:20;23.50;99.90
46490;DHT22;32204;49.160;8.580;2023-05-20T14:10:46;23.50;99.90
46490;DHT22;32204;49.160;8.580;2023-05-20T14:13:12;23.70;99.90
46490;DHT22;32204;49.160;8.580;2023-05-20T14:15:37;23.90;99.90
46490;DHT22;32204;49.160;8.580;2023-05-20T14:18:03;23.90;99.90
46490;DHT22;32204;49.160;8.580;2023-05-20T14:20:29;23.90;99.90
46490;DHT22;32204;49.160;8.580;2023-05-20T14:22:54;23.80;99.90
46490;DHT22;32204;49.160;8.580;2023-05-20T14:25:20;23.70;99.90
46490;DHT22;32204;49.160;8.580;2023-05-20T14:27:46;23.60;99.90
46490;DHT22;32204;49.160;8.580;2023-05-20T14:30:12;23.60;99.90
46490;DHT22;32204;49.160;8.580;2023-05-20T14:32:38;23.70;99.90
46490;DHT22;32204;49.160;8.580;2023-05-20T14:35:04;23.70;99.90
46490;DHT22;32204;49.160;8.580;2023-05-20T14:37:30;23.60;99.90
46490;DHT22;32204;49.160;8.580;2023-05-20T14:39:55;23.50;99.90
46490;DHT22;32204;49.160;8.580;2023-05-20T14:42:21;23.70;99.90
46490;DHT22;32204;49.160;8.580;2023-05-20T14:44:47;23.80;99.90
46490;DHT22;32204;49.160;8.580;2023-05-20T14:47:13;23.90;99.90
46490;DHT22;32204;49.160;8.580;2023-05-20T14:49:44;24.10;99.90
46490;DHT22;32204;49.160;8.580;2023-05-20T14:52:10;24.10;99.90
46490;DHT22;32204;49.160;8.580;2023-05-20T14:54:36;24.00;99.90
46490;DHT22;32204;49.160;8.580;2023-05-20T14:57:02;24.10;99.90
46490;DHT22;32204;49.160;8.580;2023-05-20T14:59:28;24.00;99.90
46490;DHT22;32204;49.160;8.580;2023-05-20T15:01:54;23.90;99.90
46490;DHT22;32204;49.160;8.580;2023-05-20T15:04:19;23.90;99.90
46490;DHT22;32204;49.160;8.580;2023-05-20T15:06:45;24.00;99.90
46490;DHT22;32204;49.160;8.580;2023-05-20T15:09:10;24.10;99.90
46490;DHT22;32204;49.160;8.580;2023-05-20T15:11:36;24.20;99.90
46490;DHT22;32204;49.160;8.580;2023-05-20T15:14:02;24.30;99.90
46490;DHT22;32204;49.160;8.580;2023-05-20T15:16:27;24.30;99.90
46490;DHT22;32204;49.160;8.580;2023-05-20T15:18:53;24.20;99.90
46490;DHT22;32204;49.160;8.580;2023-05-20T15:21:19;23.90;99.90
46490;DHT22;32204;49.160;8.580;2023-05-20T15:23:45;23.80;99.90
46490;DHT22;32204;49.160;8.580;2023-05-20T15:26:11;23.90;99.90
46490;DHT22;32204;49.160;8.580;2023-05-20T15:28:38;24.00;99.90
46490;DHT22;32204;49.160;8.580;2023-05-20T15:31:03;24.10;99.90
46490;DHT22;32204;49.160;8.580;2023-05-20T15:33:29;23.90;99.90
46490;DHT22;32204;49.160;8.580;2023-05-20T15:35:55;23.70;99.90
46490;DHT22;32204;49.160;8.580;2023-05-20T15:38:20;23.30;99.90